Saint Bonnet de Bellac- Haute Vienne - France
Donnes mto: jeudi, 09/02/2012
Date Horaire Temp. E. Hum. E. P.atmo. Pluie Vent Direction Direction Ensoleilleme Solaire P. de rose Temp au vent Rafales
09/02/2012 00:00 -10,6 C 83 % 1031,6 hPa 0,0 mm 1,8 km/h (1 Bft) N-NE 22 0 min 0 W/m -12,9 C -10,6 C 4,0 km/h (1 Bft)
09/02/2012 00:10 -10,7 C 83 % 1031,7 hPa 0,0 mm 0,0 km/h (0 Bft) N-NE 22 0 min 0 W/m -13,0 C -10,7 C 0,0 km/h (0 Bft)
09/02/2012 00:20 -10,9 C 83 % 1031,7 hPa 0,0 mm 0,0 km/h (0 Bft) N-NE 22 0 min 0 W/m -13,2 C -10,9 C 0,0 km/h (0 Bft)
09/02/2012 00:30 -10,9 C 83 % 1031,8 hPa 0,0 mm 0,4 km/h (0 Bft) E-NE 67 0 min 0 W/m -13,2 C -10,9 C 0,4 km/h (0 Bft)
09/02/2012 00:40 -10,9 C 84 % 1031,8 hPa 0,0 mm 0,0 km/h (0 Bft) NE 45 0 min 0 W/m -13,1 C -10,9 C 0,0 km/h (0 Bft)
09/02/2012 00:50 -11,1 C 83 % 1031,9 hPa 0,0 mm 0,0 km/h (0 Bft) O 270 0 min 0 W/m -13,4 C -11,1 C 0,0 km/h (0 Bft)
09/02/2012 01:00 -11,4 C 83 % 1031,9 hPa 0,0 mm 0,0 km/h (0 Bft) NE 45 0 min 0 W/m -13,7 C -11,4 C 0,0 km/h (0 Bft)
09/02/2012 01:10 -11,6 C 84 % 1031,9 hPa 0,0 mm 0,0 km/h (0 Bft) NE 45 0 min 0 W/m -13,7 C -11,6 C 0,0 km/h (0 Bft)
09/02/2012 01:20 -11,8 C 84 % 1032,1 hPa 0,0 mm 0,0 km/h (0 Bft) N-NE 22 0 min 0 W/m -13,9 C -11,8 C 0,0 km/h (0 Bft)
09/02/2012 01:30 -12,0 C 84 % 1032,1 hPa 0,0 mm 0,0 km/h (0 Bft) N-NE 22 0 min 0 W/m -14,1 C -12,0 C 0,0 km/h (0 Bft)
09/02/2012 01:40 -12,1 C 84 % 1032,2 hPa 0,0 mm 0,0 km/h (0 Bft) N-NE 22 0 min 0 W/m -14,2 C -12,1 C 0,0 km/h (0 Bft)
09/02/2012 01:50 -12,2 C 84 % 1032,2 hPa 0,0 mm 0,0 km/h (0 Bft) N-NE 22 0 min 0 W/m -14,3 C -12,2 C 0,0 km/h (0 Bft)
09/02/2012 02:02 -12,3 C 84 % 1032,1 hPa 0,0 mm 0,0 km/h (0 Bft) N-NE 22 0 min 0 W/m -14,4 C -12,3 C 0,0 km/h (0 Bft)
09/02/2012 02:10 -12,5 C 84 % 1032,2 hPa 0,0 mm 0,0 km/h (0 Bft) N-NE 22 0 min 0 W/m -14,6 C -12,5 C 0,0 km/h (0 Bft)
09/02/2012 02:20 -12,3 C 84 % 1032,2 hPa 0,0 mm 0,4 km/h (0 Bft) N-NE 22 0 min 0 W/m -14,4 C -12,3 C 2,9 km/h (1 Bft)
09/02/2012 02:30 -12,1 C 84 % 1032,2 hPa 0,0 mm 0,0 km/h (0 Bft) N-NE 22 0 min 0 W/m -14,2 C -12,1 C 0,0 km/h (0 Bft)
09/02/2012 02:40 -12,1 C 84 % 1032,2 hPa 0,0 mm 0,0 km/h (0 Bft) N-NE 22 0 min 0 W/m -14,2 C -12,1 C 0,0 km/h (0 Bft)
09/02/2012 02:50 -12,2 C 84 % 1032,1 hPa 0,0 mm 0,0 km/h (0 Bft) N-NE 22 0 min 0 W/m -14,3 C -12,2 C 0,0 km/h (0 Bft)
09/02/2012 03:00 -12,5 C 84 % 1032,1 hPa 0,0 mm 0,0 km/h (0 Bft) N 360 0 min 0 W/m -14,6 C -12,5 C 0,0 km/h (0 Bft)
09/02/2012 03:10 -12,4 C 85 % 1032,2 hPa 0,0 mm 0,0 km/h (0 Bft) N 360 0 min 0 W/m -14,4 C -12,4 C 0,0 km/h (0 Bft)
09/02/2012 03:20 -12,3 C 85 % 1032,0 hPa 0,0 mm 0,0 km/h (0 Bft) N-NE 22 0 min 0 W/m -14,3 C -12,3 C 0,0 km/h (0 Bft)
09/02/2012 03:30 -12,4 C 85 % 1032,0 hPa 0,0 mm 0,0 km/h (0 Bft) N-NE 22 0 min 0 W/m -14,4 C -12,4 C 0,0 km/h (0 Bft)
09/02/2012 03:40 -12,5 C 85 % 1032,0 hPa 0,0 mm 0,0 km/h (0 Bft) N 360 0 min 0 W/m -14,5 C -12,5 C 0,0 km/h (0 Bft)
09/02/2012 03:50 -12,7 C 84 % 1032,1 hPa 0,0 mm 0,0 km/h (0 Bft) N 360 0 min 0 W/m -14,8 C -12,7 C 3,2 km/h (1 Bft)
09/02/2012 04:00 -12,9 C 85 % 1031,9 hPa 0,0 mm 0,0 km/h (0 Bft) N 360 0 min 0 W/m -14,9 C -12,9 C 0,0 km/h (0 Bft)
09/02/2012 04:10 -12,9 C 85 % 1032,0 hPa 0,0 mm 0,4 km/h (0 Bft) N 360 0 min 0 W/m -14,9 C -12,9 C 3,2 km/h (1 Bft)
09/02/2012 04:20 -12,9 C 85 % 1032,1 hPa 0,0 mm 0,0 km/h (0 Bft) N-NE 22 0 min 0 W/m -14,9 C -12,9 C 0,0 km/h (0 Bft)
09/02/2012 04:30 -12,9 C 85 % 1032,1 hPa 0,0 mm 1,4 km/h (1 Bft) N 360 0 min 0 W/m -14,9 C -12,9 C 4,0 km/h (1 Bft)
09/02/2012 04:40 -13,1 C 85 % 1032,1 hPa 0,0 mm 0,0 km/h (0 Bft) N 360 0 min 0 W/m -15,1 C -13,1 C 0,0 km/h (0 Bft)
09/02/2012 04:50 -13,2 C 85 % 1032,1 hPa 0,0 mm 0,0 km/h (0 Bft) N 360 0 min 0 W/m -15,2 C -13,2 C 0,0 km/h (0 Bft)
09/02/2012 05:00 -13,2 C 85 % 1032,1 hPa 0,0 mm 0,0 km/h (0 Bft) N-NE 22 0 min 0 W/m -15,2 C -13,2 C 0,0 km/h (0 Bft)
09/02/2012 05:10 -13,2 C 85 % 1032,1 hPa 0,0 mm 0,0 km/h (0 Bft) N-NE 22 0 min 0 W/m -15,2 C -13,2 C 0,0 km/h (0 Bft)
09/02/2012 05:20 -13,4 C 85 % 1031,9 hPa 0,0 mm 0,0 km/h (0 Bft) N-NE 22 0 min 0 W/m -15,4 C -13,4 C 0,0 km/h (0 Bft)
09/02/2012 05:30 -13,6 C 85 % 1031,7 hPa 0,0 mm 0,0 km/h (0 Bft) N-NE 22 0 min 0 W/m -15,6 C -13,6 C 0,0 km/h (0 Bft)
09/02/2012 05:40 -13,7 C 85 % 1031,7 hPa 0,0 mm 0,0 km/h (0 Bft) N-NE 22 0 min 0 W/m -15,7 C -13,7 C 0,0 km/h (0 Bft)
09/02/2012 05:50 -13,9 C 85 % 1031,7 hPa 0,0 mm 0,0 km/h (0 Bft) N-NE 22 0 min 0 W/m -15,9 C -13,9 C 0,0 km/h (0 Bft)
09/02/2012 06:00 -13,9 C 85 % 1031,8 hPa 0,0 mm 0,0 km/h (0 Bft) N 360 0 min 0 W/m -15,9 C -13,9 C 0,0 km/h (0 Bft)
09/02/2012 06:10 -14,0 C 85 % 1031,7 hPa 0,0 mm 0,0 km/h (0 Bft) N 360 0 min 0 W/m -16,0 C -14,0 C 0,0 km/h (0 Bft)
09/02/2012 06:20 -14,0 C 85 % 1031,8 hPa 0,0 mm 0,0 km/h (0 Bft) NO 315 0 min 0 W/m -16,0 C -14,0 C 0,0 km/h (0 Bft)
09/02/2012 06:30 -14,2 C 85 % 1031,8 hPa 0,0 mm 0,0 km/h (0 Bft) NO 315 0 min 0 W/m -16,2 C -14,2 C 0,0 km/h (0 Bft)
09/02/2012 06:40 -14,6 C 85 % 1031,7 hPa 0,0 mm 0,0 km/h (0 Bft) NO 315 0 min 0 W/m -16,5 C -14,6 C 0,0 km/h (0 Bft)
09/02/2012 06:50 -14,7 C 85 % 1031,9 hPa 0,0 mm 0,0 km/h (0 Bft) NO 315 0 min 0 W/m -16,6 C -14,7 C 0,0 km/h (0 Bft)
09/02/2012 07:00 -14,9 C 85 % 1031,8 hPa 0,0 mm 0,0 km/h (0 Bft) NO 315 0 min 0 W/m -16,8 C -14,9 C 0,0 km/h (0 Bft)
09/02/2012 07:10 -14,9 C 85 % 1031,7 hPa 0,0 mm 0,0 km/h (0 Bft) NO 315 0 min 0 W/m -16,8 C -14,9 C 0,0 km/h (0 Bft)
09/02/2012 07:20 -15,1 C 85 % 1031,8 hPa 0,0 mm 0,0 km/h (0 Bft) NO 315 0 min 0 W/m -17,0 C -15,1 C 0,0 km/h (0 Bft)
09/02/2012 07:30 -15,1 C 85 % 1031,8 hPa 0,0 mm 0,0 km/h (0 Bft) NO 315 0 min 0 W/m -17,0 C -15,1 C 0,0 km/h (0 Bft)
09/02/2012 07:40 -15,1 C 85 % 1031,8 hPa 0,0 mm 0,0 km/h (0 Bft) NO 315 0 min 0 W/m -17,0 C -15,1 C 0,0 km/h (0 Bft)
09/02/2012 07:50 -15,1 C 85 % 1032,0 hPa 0,0 mm 0,0 km/h (0 Bft) N 360 0 min 0 W/m -17,0 C -15,1 C 0,0 km/h (0 Bft)
09/02/2012 08:00 -14,9 C 85 % 1032,0 hPa 0,0 mm 0,0 km/h (0 Bft) N 360 0 min 0 W/m -16,8 C -14,9 C 0,0 km/h (0 Bft)
09/02/2012 08:10 -14,9 C 85 % 1032,2 hPa 0,0 mm 0,0 km/h (0 Bft) N-NE 22 0 min 0 W/m -16,8 C -14,9 C 0,0 km/h (0 Bft)
09/02/2012 08:20 -14,8 C 85 % 1032,3 hPa 0,0 mm 0,0 km/h (0 Bft) N-NO 337 2 min 0 W/m -16,7 C -14,8 C 0,0 km/h (0 Bft)
09/02/2012 08:30 -14,8 C 85 % 1032,3 hPa 0,0 mm 0,0 km/h (0 Bft) N-NO 337 2 min 0 W/m -16,7 C -14,8 C 0,0 km/h (0 Bft)
09/02/2012 08:40 -14,9 C 85 % 1032,4 hPa 0,0 mm 0,0 km/h (0 Bft) N 360 2 min 0 W/m -16,8 C -14,9 C 0,0 km/h (0 Bft)
09/02/2012 08:50 -14,7 C 86 % 1032,3 hPa 0,0 mm 0,0 km/h (0 Bft) N-NE 22 2 min 0 W/m -16,5 C -14,7 C 0,0 km/h (0 Bft)
09/02/2012 09:00 -14,4 C 86 % 1032,5 hPa 0,0 mm 0,0 km/h (0 Bft) N-NE 22 2 min 0 W/m -16,2 C -14,4 C 0,0 km/h (0 Bft)
09/02/2012 09:10 -13,8 C 86 % 1032,6 hPa 0,0 mm 0,0 km/h (0 Bft) N-NE 22 2 min 0 W/m -15,6 C -13,8 C 0,0 km/h (0 Bft)
09/02/2012 09:20 -13,2 C 86 % 1032,7 hPa 0,0 mm 0,0 km/h (0 Bft) N 360 2 min 0 W/m -15,0 C -13,2 C 0,0 km/h (0 Bft)
09/02/2012 09:30 -12,6 C 87 % 1032,6 hPa 0,0 mm 0,0 km/h (0 Bft) N-NO 337 2 min 0 W/m -14,3 C -12,6 C 0,0 km/h (0 Bft)
09/02/2012 09:40 -12,1 C 87 % 1032,6 hPa 0,0 mm 0,0 km/h (0 Bft) NO 315 2 min 0 W/m -13,8 C -12,1 C 0,0 km/h (0 Bft)
09/02/2012 09:50 -11,4 C 86 % 1032,6 hPa 0,0 mm 0,0 km/h (0 Bft) N-NE 22 2 min 0 W/m -13,3 C -11,4 C 0,0 km/h (0 Bft)
09/02/2012 10:00 -10,7 C 86 % 1032,8 hPa 0,0 mm 0,0 km/h (0 Bft) N-NE 22 2 min 0 W/m -12,6 C -10,7 C 3,2 km/h (1 Bft)
09/02/2012 10:10 -10,2 C 86 % 1032,7 hPa 0,0 mm 0,0 km/h (0 Bft) NO 315 2 min 0 W/m -12,1 C -10,2 C 0,0 km/h (0 Bft)
09/02/2012 10:20 -9,2 C 86 % 1032,8 hPa 0,0 mm 0,0 km/h (0 Bft) NO 315 2 min 0 W/m -11,1 C -9,2 C 0,0 km/h (0 Bft)
09/02/2012 10:30 -8,6 C 85 % 1032,8 hPa 0,0 mm 0,0 km/h (0 Bft) N-NO 337 2 min 0 W/m -10,7 C -8,6 C 0,0 km/h (0 Bft)
09/02/2012 10:40 -7,9 C 85 % 1032,8 hPa 0,0 mm 0,0 km/h (0 Bft) N 360 2 min 0 W/m -10,0 C -7,9 C 0,0 km/h (0 Bft)
09/02/2012 10:50 -7,4 C 85 % 1033,1 hPa 0,0 mm 0,0 km/h (0 Bft) N 360 2 min 0 W/m -9,5 C -7,4 C 0,0 km/h (0 Bft)
09/02/2012 11:00 -7,1 C 83 % 1033,1 hPa 0,0 mm 1,8 km/h (1 Bft) N-NE 22 2 min 0 W/m -9,5 C -7,1 C 3,6 km/h (1 Bft)
09/02/2012 11:10 -6,8 C 82 % 1033,3 hPa 0,0 mm 1,1 km/h (1 Bft) N-NE 22 2 min 0 W/m -9,3 C -6,8 C 4,0 km/h (1 Bft)
09/02/2012 11:20 -6,3 C 82 % 1033,2 hPa 0,0 mm 0,7 km/h (0 Bft) NE 45 2 min 0 W/m -8,9 C -6,3 C 4,0 km/h (1 Bft)
09/02/2012 11:30 -5,6 C 80 % 1033,3 hPa 0,0 mm 0,0 km/h (0 Bft) N 360 2 min 0 W/m -8,5 C -5,6 C 0,0 km/h (0 Bft)
09/02/2012 11:40 -4,8 C 79 % 1033,6 hPa 0,0 mm 0,4 km/h (0 Bft) N-NO 337 2 min 0 W/m -7,9 C -4,8 C 3,2 km/h (1 Bft)
09/02/2012 11:50 -4,2 C 77 % 1033,5 hPa 0,0 mm 0,0 km/h (0 Bft) NE 45 2 min 0 W/m -7,6 C -4,2 C 0,0 km/h (0 Bft)
09/02/2012 12:00 -4,0 C 77 % 1033,5 hPa 0,0 mm 0,0 km/h (0 Bft) NE 45 2 min 0 W/m -7,4 C -4,0 C 0,0 km/h (0 Bft)
09/02/2012 12:10 -3,4 C 75 % 1033,3 hPa 0,0 mm 0,4 km/h (0 Bft) N-NE 22 2 min 0 W/m -7,2 C -3,4 C 4,3 km/h (1 Bft)
09/02/2012 12:20 -2,9 C 74 % 1033,4 hPa 0,0 mm 0,4 km/h (0 Bft) NE 45 2 min 0 W/m -6,9 C -2,9 C 0,4 km/h (0 Bft)
09/02/2012 12:30 -2,5 C 73 % 1033,4 hPa 0,0 mm 4,3 km/h (1 Bft) N-NE 22 2 min 0 W/m -6,7 C -2,5 C 7,2 km/h (2 Bft)
09/02/2012 12:40 -2,4 C 72 % 1033,6 hPa 0,0 mm 5,4 km/h (2 Bft) N-NE 22 2 min 0 W/m -6,7 C -4,5 C 9,0 km/h (2 Bft)
09/02/2012 12:50 -2,2 C 71 % 1033,6 hPa 0,0 mm 4,3 km/h (1 Bft) NE 45 2 min 0 W/m -6,7 C -2,2 C 7,2 km/h (2 Bft)
09/02/2012 13:00 -2,0 C 70 % 1033,6 hPa 0,0 mm 4,3 km/h (1 Bft) NE 45 2 min 0 W/m -6,7 C -2,0 C 8,3 km/h (2 Bft)
09/02/2012 13:10 -1,8 C 69 % 1033,6 hPa 0,0 mm 4,0 km/h (1 Bft) NE 45 2 min 0 W/m -6,7 C -1,8 C 8,6 km/h (2 Bft)
09/02/2012 13:20 -1,7 C 69 % 1033,5 hPa 0,0 mm 3,6 km/h (1 Bft) N-NE 22 2 min 0 W/m -6,6 C -1,7 C 4,3 km/h (1 Bft)
09/02/2012 13:30 -1,5 C 68 % 1033,3 hPa 0,0 mm 4,0 km/h (1 Bft) N-NE 22 2 min 0 W/m -6,6 C -1,5 C 4,0 km/h (1 Bft)
09/02/2012 13:40 -1,4 C 67 % 1033,4 hPa 0,0 mm 4,3 km/h (1 Bft) N-NE 22 2 min 0 W/m -6,7 C -1,4 C 4,3 km/h (1 Bft)
09/02/2012 13:50 -1,6 C 68 % 1033,3 hPa 0,0 mm 7,2 km/h (2 Bft) N-NO 337 2 min 0 W/m -6,7 C -4,3 C 7,9 km/h (2 Bft)
09/02/2012 14:00 -1,6 C 67 % 1033,4 hPa 0,0 mm 4,0 km/h (1 Bft) N 360 2 min 0 W/m -6,9 C -1,6 C 6,8 km/h (2 Bft)
09/02/2012 14:10 -1,6 C 67 % 1033,5 hPa 0,0 mm 7,6 km/h (2 Bft) N 360 2 min 0 W/m -6,9 C -4,5 C 11,2 km/h (2 Bft)
09/02/2012 14:20 -1,6 C 67 % 1033,2 hPa 0,0 mm 8,3 km/h (2 Bft) N 360 2 min 0 W/m -6,9 C -4,7 C 13,0 km/h (3 Bft)
09/02/2012 14:30 -1,6 C 67 % 1033,0 hPa 0,0 mm 5,4 km/h (2 Bft) N 360 2 min 0 W/m -6,9 C -3,6 C 9,0 km/h (2 Bft)
09/02/2012 14:40 -1,6 C 67 % 1032,8 hPa 0,0 mm 2,9 km/h (1 Bft) N-NE 22 2 min 0 W/m -6,9 C -1,6 C 3,6 km/h (1 Bft)
09/02/2012 14:50 -1,4 C 67 % 1032,5 hPa 0,0 mm 4,3 km/h (1 Bft) N 360 2 min 0 W/m -6,7 C -1,4 C 10,8 km/h (2 Bft)
09/02/2012 15:00 -1,5 C 67 % 1032,3 hPa 0,0 mm 5,0 km/h (1 Bft) NE 45 2 min 0 W/m -6,8 C -3,3 C 6,1 km/h (2 Bft)
09/02/2012 15:10 -1,5 C 66 % 1032,0 hPa 0,0 mm 1,1 km/h (1 Bft) N 360 2 min 0 W/m -7,0 C -1,5 C 6,8 km/h (2 Bft)
09/02/2012 15:20 -1,6 C 67 % 1032,0 hPa 0,0 mm 3,6 km/h (1 Bft) E-NE 67 2 min 0 W/m -6,9 C -1,6 C 7,2 km/h (2 Bft)
09/02/2012 15:30 -1,5 C 67 % 1031,8 hPa 0,0 mm 6,8 km/h (2 Bft) NE 45 2 min 0 W/m -6,8 C -4,1 C 9,7 km/h (2 Bft)
09/02/2012 15:40 -1,6 C 66 % 1031,6 hPa 0,0 mm 2,5 km/h (1 Bft) N 360 2 min 0 W/m -7,1 C -1,6 C 7,2 km/h (2 Bft)
09/02/2012 15:50 -1,8 C 66 % 1031,7 hPa 0,0 mm 7,9 km/h (2 Bft) N-NE 22 2 min 0 W/m -7,3 C -4,8 C 11,9 km/h (2 Bft)
09/02/2012 16:00 -2,2 C 66 % 1031,8 hPa 0,0 mm 7,2 km/h (2 Bft) NE 45 2 min 0 W/m -7,7 C -5,0 C 11,5 km/h (2 Bft)
09/02/2012 16:10 -2,2 C 67 % 1031,6 hPa 0,0 mm 6,5 km/h (2 Bft) NE 45 2 min 0 W/m -7,5 C -4,8 C 11,9 km/h (2 Bft)
09/02/2012 16:20 -2,4 C 67 % 1031,4 hPa 0,0 mm 2,2 km/h (1 Bft) N-NE 22 2 min 0 W/m -7,7 C -2,4 C 2,2 km/h (1 Bft)
09/02/2012 16:30 -2,4 C 68 % 1031,3 hPa 0,0 mm 3,2 km/h (1 Bft) N 360 2 min 0 W/m -7,5 C -2,4 C 3,2 km/h (1 Bft)
09/02/2012 16:40 -2,3 C 68 % 1031,5 hPa 0,0 mm 6,8 km/h (2 Bft) NE 45 2 min 0 W/m -7,4 C -5,0 C 9,4 km/h (2 Bft)
09/02/2012 16:50 -2,4 C 68 % 1031,4 hPa 0,0 mm 5,4 km/h (2 Bft) NE 45 2 min 0 W/m -7,5 C -4,5 C 9,7 km/h (2 Bft)
09/02/2012 17:00 -2,6 C 68 % 1031,4 hPa 0,0 mm 9,4 km/h (2 Bft) N-NE 22 2 min 0 W/m -7,7 C -6,2 C 10,4 km/h (2 Bft)
09/02/2012 17:10 -2,9 C 68 % 1031,5 hPa 0,0 mm 2,2 km/h (1 Bft) NE 45 2 min 0 W/m -8,0 C -2,9 C 2,2 km/h (1 Bft)
09/02/2012 17:20 -3,1 C 69 % 1031,5 hPa 0,0 mm 1,8 km/h (1 Bft) N 360 2 min 0 W/m -8,0 C -3,1 C 8,3 km/h (2 Bft)
09/02/2012 17:30 -3,1 C 69 % 1031,3 hPa 0,0 mm 0,7 km/h (0 Bft) N 360 2 min 0 W/m -8,0 C -3,1 C 3,6 km/h (1 Bft)
09/02/2012 17:40 -3,2 C 70 % 1031,3 hPa 0,0 mm 2,5 km/h (1 Bft) NE 45 2 min 0 W/m -7,9 C -3,2 C 6,8 km/h (2 Bft)
09/02/2012 17:50 -3,5 C 70 % 1031,2 hPa 0,0 mm 0,0 km/h (0 Bft) NE 45 2 min 0 W/m -8,2 C -3,5 C 2,9 km/h (1 Bft)
09/02/2012 18:00 -3,7 C 70 % 1031,1 hPa 0,0 mm 1,4 km/h (1 Bft) N 360 2 min 0 W/m -8,4 C -3,7 C 4,3 km/h (1 Bft)
09/02/2012 18:10 -4,0 C 71 % 1031,2 hPa 0,0 mm 0,0 km/h (0 Bft) N-NE 22 0 min 0 W/m -8,5 C -4,0 C 0,0 km/h (0 Bft)
09/02/2012 18:20 -4,3 C 71 % 1031,0 hPa 0,0 mm 0,0 km/h (0 Bft) N-NE 22 0 min 0 W/m -8,7 C -4,3 C 0,0 km/h (0 Bft)
09/02/2012 18:30 -4,6 C 71 % 1031,2 hPa 0,0 mm 0,0 km/h (0 Bft) N-NE 22 0 min 0 W/m -9,0 C -4,6 C 0,0 km/h (0 Bft)
09/02/2012 18:40 -4,9 C 72 % 1031,4 hPa 0,0 mm 1,1 km/h (1 Bft) N 360 0 min 0 W/m -9,1 C -4,9 C 3,6 km/h (1 Bft)
09/02/2012 18:50 -5,1 C 73 % 1031,4 hPa 0,0 mm 0,0 km/h (0 Bft) N-NE 22 0 min 0 W/m -9,2 C -5,1 C 0,0 km/h (0 Bft)
09/02/2012 19:10 -5,5 C 74 % 1031,4 hPa 0,0 mm 0,0 km/h (0 Bft) N-NE 22 0 min 0 W/m -9,4 C -5,5 C 0,0 km/h (0 Bft)
09/02/2012 19:20 -5,7 C 74 % 1031,6 hPa 0,0 mm 0,7 km/h (0 Bft) N-NE 22 0 min 0 W/m -9,6 C -5,7 C 0,7 km/h (0 Bft)
09/02/2012 19:30 -5,9 C 75 % 1031,7 hPa 0,0 mm 0,0 km/h (0 Bft) N-NE 22 0 min 0 W/m -9,6 C -5,9 C 0,0 km/h (0 Bft)
09/02/2012 19:40 -6,2 C 75 % 1031,6 hPa 0,0 mm 0,0 km/h (0 Bft) N-NE 22 0 min 0 W/m -9,9 C -6,2 C 0,0 km/h (0 Bft)
09/02/2012 19:50 -6,4 C 76 % 1031,4 hPa 0,0 mm 0,0 km/h (0 Bft) N-NO 337 0 min 0 W/m -9,9 C -6,4 C 0,0 km/h (0 Bft)
09/02/2012 20:00 -6,6 C 76 % 1031,4 hPa 0,0 mm 0,0 km/h (0 Bft) N 360 0 min 0 W/m -10,1 C -6,6 C 0,0 km/h (0 Bft)
09/02/2012 20:10 -6,8 C 76 % 1031,4 hPa 0,0 mm 0,0 km/h (0 Bft) N-NE 22 0 min 0 W/m -10,3 C -6,8 C 0,0 km/h (0 Bft)
09/02/2012 20:20 -6,9 C 77 % 1031,5 hPa 0,0 mm 1,1 km/h (1 Bft) N-NE 22 0 min 0 W/m -10,2 C -6,9 C 3,6 km/h (1 Bft)
09/02/2012 20:30 -6,9 C 78 % 1031,3 hPa 0,0 mm 0,0 km/h (0 Bft) N 360 0 min 0 W/m -10,1 C -6,9 C 0,0 km/h (0 Bft)
09/02/2012 20:40 -7,1 C 78 % 1031,2 hPa 0,0 mm 0,4 km/h (0 Bft) N-NO 337 0 min 0 W/m -10,3 C -7,1 C 3,2 km/h (1 Bft)
09/02/2012 20:50 -7,2 C 79 % 1031,4 hPa 0,0 mm 0,0 km/h (0 Bft) N 360 0 min 0 W/m -10,2 C -7,2 C 0,0 km/h (0 Bft)
09/02/2012 21:00 -7,3 C 79 % 1031,3 hPa 0,0 mm 0,0 km/h (0 Bft) N 360 0 min 0 W/m -10,3 C -7,3 C 0,0 km/h (0 Bft)
09/02/2012 21:10 -7,4 C 79 % 1031,1 hPa 0,0 mm 0,0 km/h (0 Bft) N-NE 22 0 min 0 W/m -10,4 C -7,4 C 0,0 km/h (0 Bft)
09/02/2012 21:20 -7,5 C 79 % 1031,1 hPa 0,0 mm 0,0 km/h (0 Bft) N 360 0 min 0 W/m -10,5 C -7,5 C 0,0 km/h (0 Bft)
09/02/2012 21:30 -7,6 C 80 % 1031,2 hPa 0,0 mm 0,0 km/h (0 Bft) N 360 0 min 0 W/m -10,4 C -7,6 C 3,2 km/h (1 Bft)
09/02/2012 21:40 -7,6 C 80 % 1030,9 hPa 0,0 mm 0,0 km/h (0 Bft) N-NE 22 0 min 0 W/m -10,4 C -7,6 C 0,0 km/h (0 Bft)
09/02/2012 21:50 -7,5 C 80 % 1031,2 hPa 0,0 mm 0,4 km/h (0 Bft) N-NE 22 0 min 0 W/m -10,3 C -7,5 C 3,2 km/h (1 Bft)
09/02/2012 22:00 -7,4 C 81 % 1031,0 hPa 0,0 mm 0,0 km/h (0 Bft) N 360 0 min 0 W/m -10,1 C -7,4 C 0,0 km/h (0 Bft)
09/02/2012 22:10 -7,4 C 81 % 1030,9 hPa 0,0 mm 0,0 km/h (0 Bft) N 360 0 min 0 W/m -10,1 C -7,4 C 0,0 km/h (0 Bft)
09/02/2012 22:20 -7,2 C 82 % 1030,9 hPa 0,0 mm 0,0 km/h (0 Bft) N-NE 22 0 min 0 W/m -9,7 C -7,2 C 0,0 km/h (0 Bft)
09/02/2012 22:30 -7,2 C 82 % 1030,8 hPa 0,0 mm 0,0 km/h (0 Bft) N 360 0 min 0 W/m -9,7 C -7,2 C 0,0 km/h (0 Bft)
09/02/2012 22:40 -7,2 C 82 % 1030,8 hPa 0,0 mm 0,0 km/h (0 Bft) N 360 0 min 0 W/m -9,7 C -7,2 C 0,0 km/h (0 Bft)
09/02/2012 22:50 -7,4 C 82 % 1030,8 hPa 0,0 mm 0,0 km/h (0 Bft) N-NE 22 0 min 0 W/m -9,9 C -7,4 C 0,0 km/h (0 Bft)
09/02/2012 23:00 -7,6 C 82 % 1030,9 hPa 0,0 mm 0,7 km/h (0 Bft) NE 45 0 min 0 W/m -10,1 C -7,6 C 1,4 km/h (1 Bft)
09/02/2012 23:10 -7,8 C 82 % 1030,8 hPa 0,0 mm 0,0 km/h (0 Bft) N 360 0 min 0 W/m -10,3 C -7,8 C 0,0 km/h (0 Bft)
09/02/2012 23:20 -7,9 C 82 % 1030,9 hPa 0,0 mm 2,2 km/h (1 Bft) N 360 0 min 0 W/m -10,4 C -7,9 C 3,2 km/h (1 Bft)
09/02/2012 23:30 -8,1 C 82 % 1030,8 hPa 0,0 mm 0,0 km/h (0 Bft) E-NE 67 0 min 0 W/m -10,6 C -8,1 C 0,0 km/h (0 Bft)
09/02/2012 23:40 -8,2 C 82 % 1030,7 hPa 0,0 mm 0,0 km/h (0 Bft) N-NE 22 0 min 0 W/m -10,7 C -8,2 C 0,0 km/h (0 Bft)
09/02/2012 23:50 -8,4 C 82 % 1030,6 hPa 0,0 mm 0,0 km/h (0 Bft) N-NE 22 0 min 0 W/m -10,9 C -8,4 C 0,0 km/h (0 Bft)
_ Min-Heure 07:50 16:00 23:50 - 23:50 - - - - 07:50 07:50 23:50
Minimum _ -15,1 C 66 % 1030,6 hPa - 0,0 km/h (0 Bft) - - - - -17,0 C -15,1 C 0,0 km/h (0 Bft)
_ Max-Heure 14:50 09:40 13:10 23:50 17:00 - - 18:00 23:50 13:30 14:50 14:20
Maximum _ -1,4 C 87 % 1033,6 hPa 0,0 mm 9,4 km/h
N-NE (2 Bft)
- - 2 min 0 W/m -6,6 C -1,4 C 13,0 km/h
N (3 Bft)
Moyenne _ -8,3 C 79 % 1032,0 hPa #0,0 mm 1,1 km/h (1 Bft) N-NE - #1:58 h 0 W/m -11,4 C -8,5 C 2,2 km/h (1 Bft)
Saint Bonnet de Bellac- Haute Vienne - France